Time;durP1;ratioP1;P1;durP2;ratioP2;P2;SDS_P1;SDS_P2;PMS_P1;PMS_P2;Temp;Humidity;BMP_temperature;BMP_pressure;BME280_temperature;BME280_humidity;BME280_pressure;Samples;Min_cycle;Max_cycle;Signal;HPM_P1;HPM_P2
2021/01/10 00:00:19;;;;;;;13.23;7.00;;;5.40;99.90;;;;;;5064034;28;20180;-82
2021/01/10 00:02:45;;;;;;;12.80;7.10;;;5.40;99.90;;;;;;5046258;28;20295;-82
2021/01/10 00:05:19;;;;;;;15.82;7.13;;;5.40;99.90;;;;;;5069043;28;20267;-82
2021/01/10 00:07:44;;;;;;;9.95;6.72;;;5.40;99.90;;;;;;5058714;28;20176;-82
2021/01/10 00:10:11;;;;;;;14.13;7.03;;;5.20;99.90;;;;;;5064449;28;20190;-82
2021/01/10 00:12:38;;;;;;;12.15;7.55;;;5.20;99.90;;;;;;5061949;28;20287;-83
2021/01/10 00:15:06;;;;;;;16.08;7.35;;;5.30;99.90;;;;;;5063734;28;20206;-83
2021/01/10 00:17:31;;;;;;;12.90;7.65;;;5.40;99.90;;;;;;5043043;28;20180;-81
2021/01/10 00:19:57;;;;;;;11.30;6.60;;;5.40;99.90;;;;;;5059282;28;20177;-82
2021/01/10 00:22:25;;;;;;;14.57;7.30;;;5.40;99.90;;;;;;5064508;28;20235;-82
2021/01/10 00:24:50;;;;;;;15.23;7.95;;;5.40;99.90;;;;;;5069636;28;20200;-83
2021/01/10 00:27:21;;;;;;;18.63;9.10;;;5.40;99.90;;;;;;5065774;28;20177;-82
2021/01/10 00:29:56;;;;;;;16.52;8.98;;;5.40;99.90;;;;;;5067096;28;20173;-82
2021/01/10 00:32:22;;;;;;;14.48;7.65;;;5.40;99.90;;;;;;5073065;28;20187;-82
2021/01/10 00:34:53;;;;;;;14.53;6.80;;;5.30;99.90;;;;;;5065158;28;20279;-82
2021/01/10 00:37:21;;;;;;;16.98;7.38;;;5.30;99.90;;;;;;5062994;28;20168;-82
2021/01/10 00:39:50;;;;;;;12.25;7.45;;;5.20;99.90;;;;;;5059685;28;20194;-83
2021/01/10 00:42:17;;;;;;;13.85;7.43;;;5.30;99.90;;;;;;5058670;28;20199;-82
2021/01/10 00:44:44;;;;;;;19.27;8.73;;;5.00;99.90;;;;;;5061289;28;20216;-83
2021/01/10 00:47:10;;;;;;;14.32;7.13;;;5.10;99.90;;;;;;5046373;28;20561;-82
2021/01/10 00:49:36;;;;;;;17.00;7.43;;;5.10;99.90;;;;;;5071074;28;20169;-82
2021/01/10 00:52:06;;;;;;;15.13;8.35;;;5.10;99.90;;;;;;5046785;28;20299;-81
2021/01/10 00:54:32;;;;;;;14.95;7.55;;;5.20;99.90;;;;;;5068504;28;20338;-82
2021/01/10 00:56:59;;;;;;;18.02;8.32;;;5.20;99.90;;;;;;5065860;28;20224;-81
2021/01/10 00:59:25;;;;;;;18.33;8.55;;;5.10;99.90;;;;;;5064257;28;20176;-83
2021/01/10 01:01:51;;;;;;;11.60;6.85;;;5.20;99.90;;;;;;5065013;28;20205;-81
2021/01/10 01:04:21;;;;;;;14.60;8.45;;;5.20;99.90;;;;;;5065602;28;20210;-82
2021/01/10 01:06:48;;;;;;;16.40;8.23;;;5.30;99.90;;;;;;5063926;28;20184;-82
2021/01/10 01:09:14;;;;;;;14.95;7.30;;;5.20;99.90;;;;;;5068976;28;20165;-82
2021/01/10 01:11:40;;;;;;;15.70;7.67;;;5.30;99.90;;;;;;5071032;28;20176;-83
2021/01/10 01:14:08;;;;;;;16.67;7.97;;;5.40;99.90;;;;;;5054920;28;20200;-83
2021/01/10 01:16:40;;;;;;;13.23;7.38;;;5.40;99.90;;;;;;5064978;28;20256;-81
2021/01/10 01:19:09;;;;;;;16.88;8.10;;;5.40;99.90;;;;;;5067364;28;20168;-81
2021/01/10 01:21:35;;;;;;;11.75;6.50;;;5.40;99.90;;;;;;5064006;28;20180;-82
2021/01/10 01:24:05;;;;;;;14.73;7.63;;;5.40;99.90;;;;;;5069316;28;20179;-82
2021/01/10 01:26:31;;;;;;;15.38;6.63;;;5.40;99.90;;;;;;5073376;28;20164;-83
2021/01/10 01:28:57;;;;;;;13.00;7.80;;;5.40;99.90;;;;;;5053275;28;20187;-81
2021/01/10 01:31:26;;;;;;;10.70;5.90;;;5.40;99.90;;;;;;5066271;28;20407;-81
2021/01/10 01:33:53;;;;;;;11.50;7.05;;;5.50;99.90;;;;;;5065416;28;20165;-81
2021/01/10 01:36:27;;;;;;;12.02;6.63;;;5.60;99.90;;;;;;5064463;28;20251;-82
2021/01/10 01:38:57;;;;;;;17.63;7.45;;;5.50;99.90;;;;;;5061698;28;20187;-82
2021/01/10 01:41:23;;;;;;;13.15;7.47;;;5.50;99.90;;;;;;5065190;28;20175;-81
2021/01/10 01:43:50;;;;;;;13.50;7.00;;;5.50;99.90;;;;;;5065970;28;20263;-82
2021/01/10 01:46:37;;;;;;;11.32;6.28;;;5.50;99.90;;;;;;5068432;28;20200;-82
2021/01/10 01:49:09;;;;;;;13.32;5.03;;;5.50;99.90;;;;;;5063450;28;20183;-83
2021/01/10 01:51:36;;;;;;;13.88;7.32;;;5.40;99.90;;;;;;5063446;28;20188;-82
2021/01/10 01:54:14;;;;;;;11.55;6.78;;;5.30;99.90;;;;;;5067841;28;20184;-83
2021/01/10 01:56:39;;;;;;;12.50;5.47;;;5.40;99.90;;;;;;5063272;28;20176;-83
2021/01/10 01:59:08;;;;;;;11.67;5.50;;;5.40;99.90;;;;;;5063064;28;20188;-82
2021/01/10 02:01:36;;;;;;;12.32;6.15;;;5.50;99.90;;;;;;5066737;28;20169;-81
2021/01/10 02:04:06;;;;;;;14.93;7.20;;;5.40;99.90;;;;;;5068868;28;20173;-82
2021/01/10 02:06:51;;;;;;;14.13;6.18;;;5.30;99.90;;;;;;5057746;28;20647;-81
2021/01/10 02:09:19;;;;;;;10.68;5.78;;;5.20;99.90;;;;;;5058060;28;20527;-81
2021/01/10 02:11:51;;;;;;;10.85;6.38;;;5.10;99.90;;;;;;5058832;28;20180;-82
2021/01/10 02:14:23;;;;;;;10.02;5.88;;;5.20;99.90;;;;;;5060543;28;20230;-81
2021/01/10 02:16:49;;;;;;;6.60;4.20;;;5.20;99.90;;;;;;5058742;28;20173;-82
2021/01/10 02:19:22;;;;;;;9.68;5.47;;;5.10;99.90;;;;;;5059104;28;20173;-81
2021/01/10 02:21:52;;;;;;;9.55;5.15;;;5.20;99.90;;;;;;5061626;28;20192;-83
2021/01/10 02:24:19;;;;;;;11.38;6.82;;;5.00;99.90;;;;;;5066696;28;20192;-82
2021/01/10 02:26:46;;;;;;;10.80;7.18;;;4.90;99.90;;;;;;5044397;28;20173;-82
2021/01/10 02:29:12;;;;;;;9.70;5.47;;;5.00;99.90;;;;;;5067138;28;20172;-84
2021/01/10 02:31:39;;;;;;;14.70;6.63;;;5.20;99.90;;;;;;5066462;28;20176;-82
2021/01/10 02:34:08;;;;;;;12.40;7.07;;;5.30;99.90;;;;;;5060850;28;20161;-82
2021/01/10 02:36:52;;;;;;;15.45;7.82;;;5.30;99.90;;;;;;5028809;28;20223;-82
2021/01/10 02:39:35;;;;;;;18.05;7.18;;;5.30;99.90;;;;;;5063583;28;20174;-83
2021/01/10 02:42:13;;;;;;;12.85;6.70;;;5.30;99.90;;;;;;5062833;28;20215;-83
2021/01/10 02:44:52;;;;;;;18.75;9.23;;;5.40;99.90;;;;;;5075604;28;20195;-83
2021/01/10 02:47:18;;;;;;;14.55;7.03;;;5.30;99.90;;;;;;5073696;28;20247;-83
2021/01/10 02:49:44;;;;;;;14.30;7.18;;;5.20;99.90;;;;;;5065763;28;20175;-82
2021/01/10 02:52:12;;;;;;;14.20;7.20;;;5.20;99.90;;;;;;5065305;28;20232;-83
2021/01/10 02:54:39;;;;;;;17.42;7.03;;;5.20;99.90;;;;;;5069689;28;20197;-81
2021/01/10 02:57:15;;;;;;;13.18;6.95;;;5.20;99.90;;;;;;5062016;28;20185;-82
2021/01/10 02:59:46;;;;;;;12.40;7.38;;;5.20;99.90;;;;;;5068407;28;20176;-82
2021/01/10 03:02:13;;;;;;;15.23;7.20;;;5.20;99.90;;;;;;5064823;28;20268;-82
2021/01/10 03:04:40;;;;;;;17.13;8.10;;;5.20;99.90;;;;;;5071174;28;20204;-82
2021/01/10 03:07:08;;;;;;;14.85;9.05;;;5.30;99.90;;;;;;5068774;28;20299;-82
2021/01/10 03:09:34;;;;;;;11.02;6.82;;;5.30;99.90;;;;;;5066672;28;20718;-82
2021/01/10 03:12:16;;;;;;;15.73;7.40;;;5.30;99.90;;;;;;5067642;28;20185;-82
2021/01/10 03:14:45;;;;;;;14.48;7.30;;;5.20;99.90;;;;;;5067144;28;20398;-83
2021/01/10 03:17:18;;;;;;;16.50;7.70;;;5.20;99.90;;;;;;5054198;28;20262;-84
2021/01/10 03:19:44;;;;;;;13.25;6.75;;;5.20;99.90;;;;;;5066059;28;20255;-84
2021/01/10 03:22:09;;;;;;;14.97;5.80;;;5.20;99.90;;;;;;5078595;28;20329;-84
2021/01/10 03:24:35;;;;;;;13.07;6.33;;;5.20;99.90;;;;;;5056914;28;20223;-84
2021/01/10 03:27:01;;;;;;;13.13;6.40;;;5.30;99.90;;;;;;5056892;28;20177;-84
2021/01/10 03:29:26;;;;;;;13.80;6.50;;;5.30;99.90;;;;;;5056989;28;20207;-83
2021/01/10 03:31:52;;;;;;;9.87;6.10;;;5.30;99.90;;;;;;5073622;28;20165;-83
2021/01/10 03:34:17;;;;;;;13.93;7.20;;;5.30;99.90;;;;;;5056026;28;20281;-84
2021/01/10 03:36:43;;;;;;;9.10;5.77;;;5.30;99.90;;;;;;5073163;28;20192;-83
2021/01/10 03:39:09;;;;;;;11.20;6.60;;;5.30;99.90;;;;;;5056667;28;20644;-83
2021/01/10 03:41:35;;;;;;;14.47;5.63;;;5.30;99.90;;;;;;5072837;28;20183;-82
2021/01/10 03:44:00;;;;;;;7.73;5.23;;;5.30;99.90;;;;;;5072737;28;20173;-83
2021/01/10 03:46:26;;;;;;;13.73;6.40;;;5.30;99.90;;;;;;5072417;28;20249;-83
2021/01/10 03:48:52;;;;;;;8.07;4.93;;;5.40;99.90;;;;;;5058834;28;20187;-82
2021/01/10 03:51:18;;;;;;;7.97;4.60;;;5.30;99.90;;;;;;5072165;28;20185;-83
2021/01/10 03:53:44;;;;;;;11.37;4.37;;;5.30;99.90;;;;;;5051478;28;20179;-82
2021/01/10 03:56:09;;;;;;;9.03;5.53;;;5.30;99.90;;;;;;5062216;28;20219;-82
2021/01/10 03:58:35;;;;;;;7.90;4.67;;;5.30;99.90;;;;;;5062309;28;20544;-82
2021/01/10 04:01:00;;;;;;;11.47;4.73;;;5.30;99.90;;;;;;5034044;28;20663;-82
2021/01/10 04:03:26;;;;;;;14.33;6.20;;;5.20;99.90;;;;;;5052004;28;20209;-83
2021/01/10 04:05:52;;;;;;;10.27;5.30;;;5.20;99.90;;;;;;5068405;28;20193;-83
2021/01/10 04:08:17;;;;;;;11.10;5.87;;;5.20;99.90;;;;;;5070941;28;20177;-83
2021/01/10 04:10:43;;;;;;;14.60;6.80;;;5.00;99.90;;;;;;5073637;28;20177;-84
2021/01/10 04:13:08;;;;;;;10.60;6.03;;;4.80;99.90;;;;;;5055523;28;20176;-83
2021/01/10 04:15:34;;;;;;;15.30;7.37;;;4.50;99.90;;;;;;5072088;28;20215;-83
2021/01/10 04:18:00;;;;;;;13.23;7.03;;;4.30;99.90;;;;;;5073222;28;20173;-83
2021/01/10 04:20:25;;;;;;;9.83;5.83;;;4.30;99.90;;;;;;5072252;28;20183;-84
2021/01/10 04:22:53;;;;;;;13.73;6.67;;;4.60;99.90;;;;;;5070768;28;20208;-85
2021/01/10 04:25:19;;;;;;;12.63;6.07;;;4.70;99.90;;;;;;5070741;28;20207;-83
2021/01/10 04:27:44;;;;;;;11.40;6.93;;;4.90;99.90;;;;;;5071194;28;20248;-84
2021/01/10 04:30:11;;;;;;;10.43;6.37;;;4.80;99.90;;;;;;5073007;28;20177;-84
2021/01/10 04:32:36;;;;;;;10.73;5.93;;;4.80;99.90;;;;;;5072823;28;20169;-83
2021/01/10 04:35:02;;;;;;;8.90;5.20;;;4.80;99.90;;;;;;5071642;28;20220;-82
2021/01/10 04:37:31;;;;;;;11.85;5.13;;;4.80;99.90;;;;;;5069174;28;20200;-83
2021/01/10 04:39:56;;;;;;;9.80;5.63;;;4.70;99.90;;;;;;5071745;28;20238;-83
2021/01/10 04:42:22;;;;;;;9.00;5.13;;;4.80;99.90;;;;;;5071752;28;20205;-83
2021/01/10 04:44:48;;;;;;;8.75;5.55;;;4.90;99.90;;;;;;5056129;28;20197;-82
2021/01/10 04:47:14;;;;;;;8.10;5.47;;;4.90;99.90;;;;;;5071426;28;20180;-82
2021/01/10 04:49:40;;;;;;;8.40;4.97;;;5.00;99.90;;;;;;5071612;28;20566;-83
2021/01/10 04:52:07;;;;;;;7.30;5.10;;;5.00;99.90;;;;;;5073946;28;20788;-83
2021/01/10 04:54:39;;;;;;;14.38;6.00;;;4.80;99.90;;;;;;5057868;28;20184;-82
2021/01/10 04:57:11;;;;;;;9.00;4.85;;;4.80;99.90;;;;;;5072960;28;20165;-83
2021/01/10 04:59:41;;;;;;;11.27;5.50;;;4.90;99.90;;;;;;5073306;28;20188;-83
2021/01/10 05:02:10;;;;;;;9.48;4.78;;;4.90;99.90;;;;;;5068837;28;20203;-82
2021/01/10 05:04:38;;;;;;;9.45;5.75;;;5.00;99.90;;;;;;5064724;28;20200;-83
2021/01/10 05:07:05;;;;;;;14.95;6.45;;;5.00;99.90;;;;;;5070306;28;20233;-82
2021/01/10 05:09:31;;;;;;;13.75;5.82;;;4.90;99.90;;;;;;5072139;28;20173;-83
2021/01/10 05:11:57;;;;;;;11.45;5.85;;;4.90;99.90;;;;;;5073903;28;20169;-83
2021/01/10 05:14:23;;;;;;;10.25;5.20;;;4.90;99.90;;;;;;5076927;28;20196;-83
2021/01/10 05:16:49;;;;;;;12.73;7.23;;;4.80;99.90;;;;;;5077155;28;20187;-82
2021/01/10 05:19:21;;;;;;;10.25;5.00;;;4.70;99.90;;;;;;5070061;28;20451;-83
2021/01/10 05:21:47;;;;;;;9.23;5.47;;;4.60;99.90;;;;;;5059659;28;20188;-83
2021/01/10 05:24:19;;;;;;;11.97;6.17;;;4.60;99.90;;;;;;5073410;28;20165;-82
2021/01/10 05:26:46;;;;;;;12.48;5.63;;;4.40;99.90;;;;;;5071797;28;20366;-83
2021/01/10 05:29:13;;;;;;;9.48;4.95;;;4.30;99.90;;;;;;5070565;28;20245;-83
2021/01/10 05:31:43;;;;;;;12.93;5.25;;;4.20;99.90;;;;;;5071670;28;20164;-83
2021/01/10 05:34:17;;;;;;;15.40;6.38;;;4.30;99.90;;;;;;5073062;28;20161;-83
2021/01/10 05:36:43;;;;;;;9.88;5.43;;;4.50;99.90;;;;;;5055835;28;20173;-83
2021/01/10 05:39:25;;;;;;;8.07;5.38;;;4.50;99.90;;;;;;5072010;28;20240;-83
2021/01/10 05:42:02;;;;;;;12.52;6.03;;;4.50;99.90;;;;;;5070953;28;20703;-83
2021/01/10 05:44:51;;;;;;;10.38;5.10;;;4.40;99.90;;;;;;5072528;28;20322;-84
2021/01/10 05:47:19;;;;;;;9.57;5.50;;;4.40;99.90;;;;;;5071705;28;20615;-83
2021/01/10 05:49:51;;;;;;;17.67;6.30;;;4.40;99.90;;;;;;5070874;28;20157;-83
2021/01/10 05:52:18;;;;;;;15.77;7.50;;;4.40;99.90;;;;;;5070313;28;20211;-83
2021/01/10 05:54:55;;;;;;;7.85;5.05;;;4.40;99.90;;;;;;5072052;28;20291;-82
2021/01/10 05:57:30;;;;;;;7.32;4.65;;;4.40;99.90;;;;;;5073676;28;20195;-83
2021/01/10 05:59:56;;;;;;;11.60;5.15;;;4.50;99.90;;;;;;5037611;28;20172;-83
2021/01/10 06:02:31;;;;;;;11.00;4.78;;;4.50;99.90;;;;;;5071903;28;20215;-82
2021/01/10 06:05:17;;;;;;;12.23;5.10;;;4.60;99.90;;;;;;5072621;28;20184;-83
2021/01/10 06:07:48;;;;;;;7.28;4.57;;;4.60;99.90;;;;;;5072699;28;20216;-82
2021/01/10 06:10:28;;;;;;;10.55;5.47;;;4.60;99.90;;;;;;5072613;28;20187;-84
2021/01/10 06:13:05;;;;;;;11.95;5.30;;;4.60;99.90;;;;;;5072076;28;20179;-83
2021/01/10 06:15:32;;;;;;;13.98;6.43;;;4.60;99.90;;;;;;5072417;28;20196;-82
2021/01/10 06:18:01;;;;;;;10.95;6.00;;;4.70;99.90;;;;;;5072469;28;20236;-82
2021/01/10 06:20:29;;;;;;;13.38;6.70;;;4.60;99.90;;;;;;5070830;28;20169;-82
2021/01/10 06:23:00;;;;;;;16.92;5.30;;;4.70;99.90;;;;;;5070266;28;20203;-83
2021/01/10 06:25:28;;;;;;;12.88;5.45;;;4.70;99.90;;;;;;5071858;28;20193;-83
2021/01/10 06:28:10;;;;;;;11.50;5.63;;;4.60;99.90;;;;;;5070670;28;20165;-82
2021/01/10 06:30:37;;;;;;;9.75;5.15;;;4.60;99.90;;;;;;5071920;28;20165;-83
2021/01/10 06:33:12;;;;;;;9.57;5.55;;;4.60;99.90;;;;;;5071870;28;20168;-82
2021/01/10 06:35:40;;;;;;;7.72;4.25;;;4.60;99.90;;;;;;5071797;28;20188;-83
2021/01/10 06:38:07;;;;;;;10.18;5.25;;;4.50;99.90;;;;;;5071050;28;20169;-84
2021/01/10 06:40:35;;;;;;;11.98;5.75;;;4.50;99.90;;;;;;5049733;28;20200;-83
2021/01/10 06:43:05;;;;;;;13.18;4.63;;;4.50;99.90;;;;;;5049582;28;20223;-83
2021/01/10 06:45:39;;;;;;;10.45;5.03;;;4.60;99.90;;;;;;5070152;28;20212;-82
2021/01/10 06:48:07;;;;;;;7.97;4.18;;;4.60;99.90;;;;;;5069787;28;20192;-82
2021/01/10 06:50:33;;;;;;;6.63;3.58;;;4.60;99.90;;;;;;5070301;28;20195;-82
2021/01/10 06:53:10;;;;;;;9.65;5.50;;;4.60;99.90;;;;;;5069459;28;20203;-82
2021/01/10 06:55:38;;;;;;;5.80;4.13;;;4.60;99.90;;;;;;5069717;28;20201;-83
2021/01/10 06:58:08;;;;;;;7.43;5.03;;;4.60;99.90;;;;;;5036069;28;20180;-82
2021/01/10 07:00:54;;;;;;;8.50;4.55;;;4.60;99.90;;;;;;5069898;28;20173;-80
2021/01/10 07:03:27;;;;;;;6.80;4.25;;;4.60;99.90;;;;;;5061741;28;20221;-81
2021/01/10 07:06:06;;;;;;;6.65;4.00;;;4.30;99.90;;;;;;5048553;28;20204;-81
2021/01/10 07:08:41;;;;;;;7.43;4.30;;;4.40;99.90;;;;;;5060157;28;20169;-80
2021/01/10 07:11:22;;;;;;;8.23;4.57;;;4.50;99.90;;;;;;5045359;28;20172;-82
2021/01/10 07:13:48;;;;;;;9.45;4.68;;;4.50;99.90;;;;;;5053823;28;20177;-83
2021/01/10 07:16:33;;;;;;;8.95;4.40;;;4.40;99.90;;;;;;5062842;28;20196;-83
2021/01/10 07:19:11;;;;;;;11.25;3.78;;;4.50;99.90;;;;;;5053600;28;20165;-84
2021/01/10 07:21:45;;;;;;;13.75;5.43;;;4.60;99.90;;;;;;5063238;28;20180;-82
2021/01/10 07:24:16;;;;;;;10.82;5.45;;;4.50;99.90;;;;;;5062819;28;20218;-82
2021/01/10 07:26:44;;;;;;;9.68;6.22;;;4.60;99.90;;;;;;5052505;28;20199;-84
2021/01/10 07:29:34;;;;;;;9.75;5.40;;;4.50;99.90;;;;;;5039956;28;20265;-84
2021/01/10 07:32:04;;;;;;;13.07;4.78;;;4.60;99.90;;;;;;5061199;28;20184;-84
2021/01/10 07:34:32;;;;;;;10.70;6.35;;;4.50;99.90;;;;;;5045531;28;20198;-85
2021/01/10 07:37:01;;;;;;;13.15;4.15;;;4.50;99.90;;;;;;5039899;28;20173;-84
2021/01/10 07:39:29;;;;;;;7.38;4.90;;;4.50;99.90;;;;;;5052465;28;20727;-83
2021/01/10 07:42:14;;;;;;;10.50;5.10;;;4.60;99.90;;;;;;5049312;28;20261;-82
2021/01/10 07:44:57;;;;;;;8.20;5.38;;;4.40;99.90;;;;;;5062277;28;20196;-81
2021/01/10 07:47:32;;;;;;;10.52;5.80;;;4.40;99.90;;;;;;5053320;28;20169;-80
2021/01/10 07:50:10;;;;;;;11.10;5.72;;;4.50;99.90;;;;;;5067227;28;20157;-82
2021/01/10 07:52:42;;;;;;;10.68;5.93;;;4.60;99.90;;;;;;5064448;28;20248;-82
2021/01/10 07:55:19;;;;;;;8.10;4.30;;;4.50;99.90;;;;;;5060686;28;20207;-83
2021/01/10 07:58:00;;;;;;;12.50;6.47;;;4.50;99.90;;;;;;5069678;28;20176;-85
2021/01/10 08:00:32;;;;;;;8.73;5.05;;;4.50;99.90;;;;;;5069986;28;20173;-84
2021/01/10 08:03:03;;;;;;;9.18;5.22;;;4.50;99.90;;;;;;5068736;28;20205;-82
2021/01/10 08:05:36;;;;;;;9.93;5.32;;;4.60;99.90;;;;;;5057956;28;20207;-83
2021/01/10 08:08:03;;;;;;;10.73;4.68;;;4.50;99.90;;;;;;5058694;28;20188;-82
2021/01/10 08:10:44;;;;;;;8.48;4.68;;;4.60;99.90;;;;;;5053601;28;20176;-83
2021/01/10 08:13:31;;;;;;;9.85;4.93;;;4.50;99.90;;;;;;5058133;28;20181;-82
2021/01/10 08:16:31;;;;;;;9.60;5.00;;;4.70;99.90;;;;;;5073553;28;20240;-82
2021/01/10 08:19:08;;;;;;;8.77;4.78;;;4.90;99.90;;;;;;5059553;28;20233;-82
2021/01/10 08:21:33;;;;;;;12.10;4.47;;;5.10;99.90;;;;;;5074718;28;20185;-79
2021/01/10 08:24:03;;;;;;;8.93;4.57;;;5.10;99.90;;;;;;5066243;28;20185;-82
2021/01/10 08:27:02;;;;;;;7.85;4.55;;;5.20;99.90;;;;;;5047751;28;20173;-82
2021/01/10 08:29:31;;;;;;;12.27;5.75;;;5.40;99.90;;;;;;5056984;28;20190;-82
2021/01/10 08:31:56;;;;;;;12.50;5.07;;;5.40;99.90;;;;;;5054150;28;20157;-81
2021/01/10 08:34:22;;;;;;;9.37;5.10;;;5.50;99.90;;;;;;5053860;28;20197;-80
2021/01/10 08:36:48;;;;;;;8.67;5.90;;;5.20;99.90;;;;;;5053540;28;20458;-81
2021/01/10 08:39:18;;;;;;;12.73;6.07;;;5.20;99.90;;;;;;5063916;28;20241;-83
2021/01/10 08:41:46;;;;;;;11.90;5.63;;;5.10;99.90;;;;;;5055458;28;20755;-80
2021/01/10 08:44:13;;;;;;;12.90;5.53;;;5.30;99.90;;;;;;5057410;28;20249;-82
2021/01/10 08:46:42;;;;;;;7.10;4.10;;;5.60;99.90;;;;;;5069346;28;20153;-80
2021/01/10 08:49:07;;;;;;;6.45;3.70;;;4.80;99.90;;;;;;5073306;28;20169;-83
2021/01/10 08:51:38;;;;;;;6.90;4.70;;;4.70;99.90;;;;;;5070956;28;20191;-79
2021/01/10 08:54:14;;;;;;;8.70;5.10;;;4.80;99.90;;;;;;5071287;28;20416;-81
2021/01/10 08:56:41;;;;;;;8.95;4.95;;;4.60;99.90;;;;;;5070644;28;20169;-81
2021/01/10 08:59:08;;;;;;;9.80;4.80;;;4.70;99.90;;;;;;5064348;28;20556;-82
2021/01/10 09:01:34;;;;;;;6.53;4.35;;;4.70;99.90;;;;;;5067294;28;20182;-80
2021/01/10 09:04:11;;;;;;;6.82;4.10;;;4.60;99.90;;;;;;5075315;28;20176;-79
2021/01/10 09:06:52;;;;;;;8.35;5.18;;;4.70;99.90;;;;;;5070678;28;20161;-80
2021/01/10 09:09:21;;;;;;;9.32;5.00;;;4.60;99.90;;;;;;5059046;28;20216;-80
2021/01/10 09:11:59;;;;;;;9.63;5.28;;;4.60;99.90;;;;;;5059879;28;20169;-80
2021/01/10 09:14:33;;;;;;;12.20;5.40;;;4.70;99.90;;;;;;5069829;28;20207;-80
2021/01/10 09:17:00;;;;;;;7.55;4.15;;;4.80;99.90;;;;;;5070896;28;20204;-81
2021/01/10 09:19:29;;;;;;;7.65;5.30;;;4.80;99.90;;;;;;5071801;28;20192;-80
2021/01/10 09:21:55;;;;;;;7.22;4.18;;;4.60;99.90;;;;;;5065153;28;20193;-80
2021/01/10 09:24:31;;;;;;;4.22;3.08;;;4.80;99.90;;;;;;5053060;28;20193;-82
2021/01/10 09:27:11;;;;;;;10.50;4.93;;;4.50;99.90;;;;;;5057334;28;20172;-80
2021/01/10 09:29:37;;;;;;;8.75;5.03;;;4.20;99.90;;;;;;5054248;28;20202;-82
2021/01/10 09:32:04;;;;;;;7.10;5.07;;;3.90;99.90;;;;;;5042828;28;20271;-80
2021/01/10 09:34:30;;;;;;;9.98;5.20;;;3.90;99.90;;;;;;5072799;28;20550;-82
2021/01/10 09:37:03;;;;;;;7.83;5.00;;;3.90;99.90;;;;;;5067378;28;20178;-81
2021/01/10 09:39:43;;;;;;;11.63;5.85;;;4.10;99.90;;;;;;5067705;28;20435;-82
2021/01/10 09:42:12;;;;;;;7.03;4.43;;;3.70;99.90;;;;;;5061463;28;20185;-83
2021/01/10 09:44:54;;;;;;;9.40;5.20;;;3.80;99.90;;;;;;5071369;28;20208;-82
2021/01/10 09:47:35;;;;;;;10.00;5.10;;;4.10;99.90;;;;;;5065332;28;20166;-81
2021/01/10 09:50:08;;;;;;;7.43;3.88;;;4.40;99.90;;;;;;5054767;28;20154;-81
2021/01/10 09:52:48;;;;;;;7.55;5.13;;;4.40;99.90;;;;;;5051336;28;20181;-80
2021/01/10 09:55:14;;;;;;;8.70;5.45;;;4.50;99.90;;;;;;5069490;28;20200;-81
2021/01/10 09:57:40;;;;;;;11.63;5.85;;;4.60;99.90;;;;;;5073528;28;20177;-82
2021/01/10 10:00:13;;;;;;;8.40;5.57;;;4.70;99.90;;;;;;5060105;28;20181;-81
2021/01/10 10:05:29;;;;;;;9.18;5.43;;;4.50;99.90;;;;;;5066243;28;20772;-80
2021/01/10 10:08:01;;;;;;;7.87;4.07;;;4.60;99.90;;;;;;5066949;28;20199;-80
2021/01/10 10:10:28;;;;;;;7.07;4.50;;;4.60;99.90;;;;;;5057672;28;20157;-79
2021/01/10 10:12:55;;;;;;;8.32;4.75;;;4.70;99.90;;;;;;5051369;28;20225;-80
2021/01/10 10:15:54;;;;;;;9.48;4.45;;;4.70;99.90;;;;;;5060259;28;20197;-81
2021/01/10 10:18:25;;;;;;;7.82;4.95;;;4.80;99.90;;;;;;5046821;28;20181;-80
2021/01/10 10:20:51;;;;;;;15.88;4.90;;;4.90;99.90;;;;;;5047279;28;20181;-80
2021/01/10 10:23:17;;;;;;;9.88;5.07;;;5.00;99.90;;;;;;5051787;28;20208;-81
2021/01/10 10:25:50;;;;;;;10.02;5.65;;;4.90;99.90;;;;;;5062592;28;20734;-80
2021/01/10 10:28:16;;;;;;;7.13;5.07;;;4.80;99.90;;;;;;5063555;28;20169;-80
2021/01/10 10:30:42;;;;;;;11.55;5.38;;;4.70;99.90;;;;;;5058392;28;20272;-80
2021/01/10 10:33:11;;;;;;;10.60;7.07;;;4.50;99.90;;;;;;5046788;28;20169;-80
2021/01/10 10:35:45;;;;;;;9.35;6.35;;;4.40;99.90;;;;;;5056908;28;20204;-81
2021/01/10 10:38:11;;;;;;;9.07;5.43;;;4.50;99.90;;;;;;5053613;28;20541;-80
2021/01/10 10:40:38;;;;;;;10.70;6.10;;;4.70;99.90;;;;;;5068875;28;20203;-80
2021/01/10 10:43:03;;;;;;;9.50;4.28;;;4.80;99.90;;;;;;5066477;28;20213;-81
2021/01/10 10:45:30;;;;;;;12.97;5.70;;;4.80;99.90;;;;;;5039054;28;20205;-82
2021/01/10 10:47:56;;;;;;;13.23;5.82;;;4.80;99.90;;;;;;5062329;28;20180;-80
2021/01/10 10:50:22;;;;;;;11.20;5.57;;;4.90;99.90;;;;;;5049119;28;20488;-82
2021/01/10 10:52:51;;;;;;;8.93;5.00;;;4.80;99.90;;;;;;5050317;28;20204;-81
2021/01/10 10:55:18;;;;;;;7.10;4.35;;;4.60;99.90;;;;;;5049347;28;20204;-81
2021/01/10 10:57:45;;;;;;;11.98;5.85;;;4.40;99.90;;;;;;5049477;28;20252;-81
2021/01/10 11:00:12;;;;;;;9.07;5.57;;;4.50;99.90;;;;;;5045693;28;20549;-83
2021/01/10 11:02:43;;;;;;;8.80;4.47;;;4.40;99.90;;;;;;5051923;28;20205;-82
2021/01/10 11:05:09;;;;;;;9.98;5.18;;;4.30;99.90;;;;;;5048851;28;20186;-81
2021/01/10 11:07:37;;;;;;;8.90;4.17;;;4.40;99.90;;;;;;5046175;28;20177;-81
2021/01/10 11:10:05;;;;;;;11.57;4.88;;;4.40;99.90;;;;;;5048711;28;20412;-81
2021/01/10 11:12:32;;;;;;;11.52;6.13;;;4.50;99.90;;;;;;5054872;28;20174;-82
2021/01/10 11:15:03;;;;;;;12.82;5.55;;;4.60;99.90;;;;;;5053858;28;20197;-86
2021/01/10 11:17:30;;;;;;;10.55;6.00;;;4.60;99.90;;;;;;5057483;28;20224;-82
2021/01/10 11:19:58;;;;;;;7.90;4.75;;;4.70;99.90;;;;;;5056704;28;20395;-83
2021/01/10 11:22:35;;;;;;;7.93;4.50;;;4.70;99.90;;;;;;5049909;28;20687;-87
2021/01/10 11:25:05;;;;;;;10.38;5.30;;;4.90;99.90;;;;;;5052120;28;20181;-84
2021/01/10 11:27:33;;;;;;;8.40;4.95;;;4.90;99.90;;;;;;5050414;28;20193;-82
2021/01/10 11:30:01;;;;;;;7.80;5.22;;;4.90;99.90;;;;;;5047247;28;20253;-82
2021/01/10 11:32:27;;;;;;;11.75;5.18;;;4.80;99.90;;;;;;5042654;28;20180;-81
2021/01/10 11:34:54;;;;;;;7.63;3.93;;;4.40;99.90;;;;;;5037585;28;20739;-81
2021/01/10 11:37:21;;;;;;;10.93;5.55;;;4.30;99.90;;;;;;5040746;28;20240;-81
2021/01/10 11:39:57;;;;;;;7.50;5.20;;;4.50;99.90;;;;;;5045496;28;20227;-81
2021/01/10 11:42:27;;;;;;;11.88;5.45;;;4.60;99.90;;;;;;5041549;28;20205;-82
2021/01/10 11:44:53;;;;;;;10.77;5.40;;;4.70;99.90;;;;;;5039681;28;20534;-81
2021/01/10 11:47:23;;;;;;;7.77;4.07;;;4.70;99.90;;;;;;5041356;28;20188;-83
2021/01/10 11:49:48;;;;;;;7.68;4.70;;;4.70;99.90;;;;;;5040356;28;20536;-82
2021/01/10 11:52:14;;;;;;;10.20;5.30;;;4.60;99.90;;;;;;5026727;28;20228;-82
2021/01/10 11:54:40;;;;;;;11.50;5.17;;;4.60;99.90;;;;;;5042583;28;20212;-83
2021/01/10 11:57:09;;;;;;;13.27;7.50;;;4.70;99.90;;;;;;5043207;28;20399;-81
2021/01/10 11:59:35;;;;;;;8.65;5.68;;;4.60;99.90;;;;;;5013335;28;20181;-82
2021/01/10 12:02:24;;;;;;;10.45;4.95;;;4.50;99.90;;;;;;5015198;28;20205;-85
2021/01/10 12:04:49;;;;;;;8.88;4.93;;;4.40;99.90;;;;;;5038799;28;20194;-83
2021/01/10 12:07:15;;;;;;;6.40;4.40;;;4.50;99.90;;;;;;5024873;28;20169;-83
2021/01/10 12:09:41;;;;;;;7.73;4.47;;;4.60;99.90;;;;;;5039938;28;20637;-83
2021/01/10 12:12:10;;;;;;;12.23;5.50;;;4.70;99.90;;;;;;5039535;28;20412;-83
2021/01/10 12:14:38;;;;;;;7.55;4.82;;;4.80;99.90;;;;;;5006668;28;20194;-83
2021/01/10 12:17:07;;;;;;;7.22;3.83;;;4.80;99.90;;;;;;5022605;28;20181;-82
2021/01/10 12:19:42;;;;;;;8.27;4.40;;;4.40;99.90;;;;;;5039126;28;20177;-83
2021/01/10 12:22:08;;;;;;;11.23;4.40;;;4.40;99.90;;;;;;5039221;28;20682;-83
2021/01/10 12:24:33;;;;;;;7.93;4.30;;;4.50;99.90;;;;;;5022266;28;20284;-84
2021/01/10 12:26:59;;;;;;;5.80;4.43;;;4.60;99.90;;;;;;5039714;28;20189;-83
2021/01/10 12:29:25;;;;;;;10.80;5.47;;;4.60;99.90;;;;;;5040002;28;20653;-84
2021/01/10 12:31:57;;;;;;;7.73;4.33;;;4.60;99.90;;;;;;5022106;28;20272;-85
2021/01/10 12:34:23;;;;;;;9.82;5.90;;;4.70;99.90;;;;;;5038522;28;20193;-83
2021/01/10 12:36:48;;;;;;;8.83;4.37;;;4.70;99.90;;;;;;5037624;28;20233;-83
2021/01/10 12:39:17;;;;;;;7.97;3.83;;;4.70;99.90;;;;;;5021560;28;20185;-83
2021/01/10 12:41:42;;;;;;;8.70;5.13;;;4.70;99.90;;;;;;5037188;28;20181;-83
2021/01/10 12:44:08;;;;;;;7.83;5.23;;;4.70;99.90;;;;;;5007903;28;20204;-82
2021/01/10 12:46:41;;;;;;;8.93;5.13;;;4.60;99.90;;;;;;5037293;28;20268;-83
2021/01/10 12:49:07;;;;;;;10.40;5.70;;;4.40;99.90;;;;;;5006530;28;20196;-83
2021/01/10 12:51:39;;;;;;;10.60;5.10;;;4.50;99.90;;;;;;5037347;28;20227;-84
2021/01/10 12:54:06;;;;;;;10.45;4.85;;;4.60;99.90;;;;;;5022996;28;20204;-81
2021/01/10 12:56:32;;;;;;;8.55;5.35;;;4.80;99.90;;;;;;5053970;28;20146;-83
2021/01/10 12:58:57;;;;;;;10.80;6.07;;;4.70;99.90;;;;;;5054089;28;20221;-82
2021/01/10 13:01:23;;;;;;;8.03;5.30;;;4.50;99.90;;;;;;5044925;28;20421;-82
2021/01/10 13:03:49;;;;;;;10.73;6.33;;;4.40;99.90;;;;;;5022306;28;20213;-82
2021/01/10 13:06:23;;;;;;;10.10;5.23;;;4.50;99.90;;;;;;5039221;28;20208;-83